createdAt,value
2023-03-24T00:01:57.401Z,65.04
2023-03-24T00:04:25.252Z,64.98
2023-03-24T00:06:52.667Z,64.79
2023-03-24T00:09:20.201Z,64.33
2023-03-24T00:11:47.127Z,64.43
2023-03-24T00:14:14.178Z,64.61
2023-03-24T00:16:45.676Z,64.66
2023-03-24T00:19:15.246Z,64.82
2023-03-24T00:21:43.016Z,64.93
2023-03-24T00:24:11.803Z,64.99
2023-03-24T00:26:41.094Z,64.67
2023-03-24T00:29:13.901Z,65.16
2023-03-24T00:31:40.846Z,64.89
2023-03-24T00:34:09.311Z,65.28
2023-03-24T00:36:37.452Z,65.04
2023-03-24T00:39:06.559Z,65.13
2023-03-24T00:41:33.836Z,65.31
2023-03-24T00:44:04.042Z,64.92
2023-03-24T00:46:31.249Z,65.68
2023-03-24T00:49:05.917Z,65.43
2023-03-24T00:51:39.634Z,65.41
2023-03-24T00:54:09.549Z,65.41
2023-03-24T00:56:40.875Z,65.19
2023-03-24T00:59:10.629Z,65.34
2023-03-24T01:01:41.135Z,65.36
2023-03-24T01:04:08.605Z,66.02
2023-03-24T01:06:37.383Z,65.24
2023-03-24T01:09:36.624Z,65.81
2023-03-24T01:12:25.339Z,66.31
2023-03-24T01:15:16.856Z,66.08
2023-03-24T01:18:03.891Z,66.12
2023-03-24T01:20:59.646Z,66.05
2023-03-24T01:23:45.911Z,67.50
2023-03-24T01:26:12.879Z,66.69
2023-03-24T01:28:41.349Z,66.42
2023-03-24T01:31:10.173Z,66.82
2023-03-24T01:33:38.261Z,67.13
2023-03-24T01:36:06.817Z,65.88
2023-03-24T01:38:35.118Z,66.07
2023-03-24T01:41:02.963Z,66.32
2023-03-24T01:43:31.929Z,66.31
2023-03-24T01:46:13.378Z,67.28
2023-03-24T01:49:01.531Z,67.25
2023-03-24T01:51:34.949Z,66.33
2023-03-24T01:54:07.321Z,66.58
2023-03-24T01:56:38.675Z,66.24
2023-03-24T01:59:17.291Z,66.10
2023-03-24T02:01:45.836Z,66.40
2023-03-24T02:04:13.865Z,66.43
2023-03-24T02:06:44.209Z,66.53
2023-03-24T02:09:13.683Z,66.23
2023-03-24T02:11:41.911Z,66.72
2023-03-24T02:14:28.784Z,66.60
2023-03-24T02:17:31.068Z,66.92
2023-03-24T02:20:44.532Z,66.65
2023-03-24T02:23:25.357Z,66.74
2023-03-24T02:26:44.461Z,66.38
2023-03-24T02:29:43.489Z,66.16
2023-03-24T02:33:00.415Z,66.10
2023-03-24T02:35:56.189Z,66.43
2023-03-24T02:39:00.715Z,67.22
2023-03-24T02:41:42.651Z,66.57
2023-03-24T02:44:26.755Z,66.79
2023-03-24T02:47:01.503Z,66.92
2023-03-24T02:49:48.185Z,67.39
2023-03-24T02:52:15.078Z,66.84
2023-03-24T02:54:44.556Z,67.14
2023-03-24T02:57:24.955Z,67.06
2023-03-24T03:00:05.013Z,66.97
2023-03-24T03:02:36.121Z,66.54
2023-03-24T03:05:14.154Z,67.72
2023-03-24T03:07:44.914Z,66.96
2023-03-24T03:10:18.032Z,67.50
2023-03-24T03:12:50.639Z,67.50
2023-03-24T03:15:24.579Z,66.65
2023-03-24T03:18:41.033Z,66.60
2023-03-24T03:21:13.474Z,66.98
2023-03-24T03:24:02.547Z,67.76
2023-03-24T03:26:33.245Z,68.46
2023-03-24T03:29:06.181Z,68.70
2023-03-24T03:31:52.134Z,68.91
2023-03-24T03:34:52.977Z,68.75
2023-03-24T03:37:38.661Z,69.19
2023-03-24T03:40:25.397Z,70.08
2023-03-24T03:42:52.768Z,71.15
2023-03-24T03:45:19.933Z,71.56
2023-03-24T03:47:47.142Z,72.20
2023-03-24T03:50:14.147Z,73.08
2023-03-24T03:52:41.948Z,73.38
2023-03-24T03:55:09.622Z,73.88
2023-03-24T03:57:36.858Z,74.26
2023-03-24T04:00:12.124Z,74.18
2023-03-24T04:02:54.464Z,75.48
2023-03-24T04:05:36.316Z,77.40
2023-03-24T04:08:18.909Z,77.69
2023-03-24T04:11:14.631Z,78.20
2023-03-24T04:14:06.209Z,77.51
2023-03-24T04:17:00.957Z,78.30
2023-03-24T04:19:50.599Z,79.85
2023-03-24T04:22:40.712Z,80.72
2023-03-24T04:25:31.529Z,81.63
2023-03-24T04:28:32.129Z,82.30
2023-03-24T04:31:07.629Z,82.11
2023-03-24T04:33:46.371Z,84.08
2023-03-24T04:36:19.277Z,85.29
2023-03-24T04:38:55.109Z,85.99
2023-03-24T04:41:26.020Z,85.47
2023-03-24T04:43:57.410Z,85.75
2023-03-24T04:46:25.691Z,85.82
2023-03-24T04:48:52.603Z,85.47
2023-03-24T04:51:21.251Z,85.87
2023-03-24T04:53:48.753Z,86.20
2023-03-24T04:56:40.194Z,87.97
2023-03-24T04:59:10.221Z,87.37
2023-03-24T05:01:37.869Z,88.18
2023-03-24T05:04:06.335Z,87.74
2023-03-24T05:06:33.622Z,88.39
2023-03-24T05:09:00.611Z,88.74
2023-03-24T05:11:28.078Z,87.47
2023-03-24T05:13:55.802Z,87.50
2023-03-24T05:16:22.787Z,87.44
2023-03-24T05:18:49.765Z,88.08
2023-03-24T05:21:16.677Z,88.47
2023-03-24T05:23:43.689Z,87.69
2023-03-24T05:26:11.173Z,88.57
2023-03-24T05:28:38.098Z,87.77
2023-03-24T05:31:05.134Z,88.21
2023-03-24T05:33:34.181Z,88.33
2023-03-24T05:36:01.472Z,88.81
2023-03-24T05:38:28.394Z,89.05
2023-03-24T05:40:59.377Z,87.71
2023-03-24T05:43:26.920Z,88.33
2023-03-24T05:46:46.543Z,88.31
2023-03-24T05:49:15.291Z,88.62
2023-03-24T05:51:42.187Z,88.38
2023-03-24T05:54:09.130Z,88.84
2023-03-24T05:56:36.089Z,88.92
2023-03-24T05:59:03.417Z,89.72
2023-03-24T06:01:30.592Z,89.62
2023-03-24T06:03:57.646Z,89.94
2023-03-24T06:06:24.579Z,88.66
2023-03-24T06:08:54.824Z,89.11
2023-03-24T06:11:21.717Z,88.61
2023-03-24T06:13:49.035Z,88.42
2023-03-24T06:16:18.998Z,88.63
2023-03-24T06:18:52.681Z,87.63
2023-03-24T06:21:20.682Z,87.42
2023-03-24T06:23:57.433Z,87.62
2023-03-24T06:26:35.572Z,87.12
2023-03-24T06:29:02.538Z,86.68
2023-03-24T06:31:30.718Z,84.96
2023-03-24T06:33:58.267Z,84.84
2023-03-24T06:36:25.956Z,83.26
2023-03-24T06:38:53.956Z,81.68
2023-03-24T06:41:21.655Z,81.41
2023-03-24T06:43:48.629Z,81.05
2023-03-24T06:46:15.647Z,80.81
2023-03-24T06:48:42.589Z,79.37
2023-03-24T06:51:09.532Z,78.37
2023-03-24T06:53:38.013Z,77.02
2023-03-24T06:56:05.231Z,76.58
2023-03-24T06:58:33.923Z,76.87
2023-03-24T07:01:02.301Z,76.06
2023-03-24T07:03:29.372Z,76.54
2023-03-24T07:05:57.388Z,77.14
2023-03-24T07:08:37.512Z,77.23
2023-03-24T07:11:07.275Z,77.21
2023-03-24T07:13:34.389Z,77.51
2023-03-24T07:16:01.549Z,78.03
2023-03-24T07:18:28.812Z,78.45
2023-03-24T07:20:55.698Z,77.64
2023-03-24T07:23:22.631Z,78.83
2023-03-24T07:25:49.533Z,78.97
2023-03-24T07:28:16.550Z,77.48
2023-03-24T07:30:43.490Z,76.88
2023-03-24T07:33:12.209Z,75.08
2023-03-24T07:35:40.531Z,74.52
2023-03-24T07:38:07.912Z,74.96
2023-03-24T07:40:37.924Z,73.86
2023-03-24T07:43:06.797Z,72.88
2023-03-24T07:45:34.182Z,72.77
2023-03-24T07:48:02.345Z,71.50
2023-03-24T07:50:30.305Z,71.96
2023-03-24T07:52:59.807Z,72.06
2023-03-24T07:55:27.571Z,71.58
2023-03-24T07:57:54.748Z,72.54
2023-03-24T08:00:22.628Z,72.13
2023-03-24T08:02:52.415Z,71.25
2023-03-24T08:05:22.100Z,70.70
2023-03-24T08:07:53.757Z,72.13
2023-03-24T08:10:30.130Z,71.43
2023-03-24T08:12:58.280Z,66.88
2023-03-24T08:15:27.477Z,68.34
2023-03-24T08:17:56.704Z,66.77
2023-03-24T08:20:25.273Z,67.06
2023-03-24T08:22:54.625Z,67.30
2023-03-24T08:25:24.778Z,66.77
2023-03-24T08:27:52.328Z,64.67
2023-03-24T08:30:22.575Z,64.71
2023-03-24T08:32:52.237Z,64.51
2023-03-24T08:35:22.896Z,64.21
2023-03-24T08:37:49.781Z,62.39
2023-03-24T08:40:20.884Z,62.86
2023-03-24T08:42:49.725Z,61.01
2023-03-24T08:45:21.177Z,61.36
2023-03-24T08:47:49.551Z,61.69
2023-03-24T08:50:16.894Z,58.87
2023-03-24T08:52:44.204Z,57.53
2023-03-24T08:55:11.642Z,57.29
2023-03-24T08:57:38.560Z,57.09
2023-03-24T09:00:15.562Z,56.78
2023-03-24T09:02:45.189Z,55.42
2023-03-24T09:05:12.817Z,57.71
2023-03-24T09:07:39.778Z,57.42
2023-03-24T09:10:09.566Z,55.32
2023-03-24T09:12:37.860Z,56.98
2023-03-24T09:15:06.506Z,55.45
2023-03-24T09:17:33.695Z,55.39
2023-03-24T09:20:02.160Z,55.77
2023-03-24T09:22:29.353Z,57.30
2023-03-24T09:24:56.257Z,57.04
2023-03-24T09:27:23.621Z,55.09
2023-03-24T09:29:50.961Z,55.04
2023-03-24T09:32:17.832Z,54.15
2023-03-24T09:34:44.747Z,54.22
2023-03-24T09:37:11.668Z,53.62
2023-03-24T09:39:38.724Z,52.70
2023-03-24T09:42:07.350Z,51.41
2023-03-24T09:44:40.738Z,52.92
2023-03-24T09:47:22.500Z,52.55
2023-03-24T09:49:51.947Z,49.91
2023-03-24T09:52:35.367Z,50.54
2023-03-24T09:55:03.400Z,49.45
2023-03-24T09:57:38.119Z,49.14
2023-03-24T10:00:19.652Z,50.06
2023-03-24T10:02:47.697Z,49.19
2023-03-24T10:05:20.996Z,50.18
2023-03-24T10:07:59.924Z,49.69
2023-03-24T10:10:38.546Z,49.20
2023-03-24T10:13:30.536Z,50.17
2023-03-24T10:16:21.270Z,50.47
2023-03-24T10:19:05.538Z,50.71
2023-03-24T10:21:36.594Z,51.28
2023-03-24T10:24:33.579Z,49.67
2023-03-24T10:27:16.784Z,48.57
2023-03-24T10:29:46.749Z,49.16
2023-03-24T10:32:22.524Z,46.15
2023-03-24T10:34:56.700Z,46.45
2023-03-24T10:37:23.930Z,45.02
2023-03-24T10:39:52.204Z,44.71
2023-03-24T10:42:25.957Z,44.68
2023-03-24T10:44:53.434Z,45.55
2023-03-24T10:47:26.424Z,44.93
2023-03-24T10:49:58.043Z,45.79
2023-03-24T10:52:25.478Z,46.64
2023-03-24T10:55:03.711Z,44.80
2023-03-24T10:57:31.578Z,46.05
2023-03-24T11:00:09.994Z,43.51
2023-03-24T11:02:38.252Z,44.16
2023-03-24T11:05:19.274Z,46.00
2023-03-24T11:07:49.308Z,43.64
2023-03-24T11:10:21.236Z,44.06
2023-03-24T11:12:54.059Z,44.33
2023-03-24T11:15:26.474Z,44.50
2023-03-24T11:17:57.593Z,44.20
2023-03-24T11:20:41.689Z,43.08
2023-03-24T11:23:14.812Z,43.28
2023-03-24T11:25:47.174Z,43.88
2023-03-24T11:28:25.655Z,44.01
2023-03-24T11:30:55.397Z,44.77
2023-03-24T11:33:35.916Z,41.59
2023-03-24T11:36:30.703Z,41.86
2023-03-24T11:39:22.350Z,42.46
2023-03-24T11:42:14.331Z,42.18
2023-03-24T11:44:48.289Z,42.42
2023-03-24T11:47:36.791Z,40.96
2023-03-24T11:50:09.563Z,41.47
2023-03-24T11:52:40.712Z,41.59
2023-03-24T11:55:18.745Z,40.95
2023-03-24T11:58:28.196Z,41.21
2023-03-24T12:01:21.787Z,42.27
2023-03-24T12:04:25.108Z,41.91
2023-03-24T12:07:14.852Z,42.60
2023-03-24T12:09:50.598Z,42.83
2023-03-24T12:12:43.172Z,41.82
2023-03-24T12:15:26.760Z,42.30
2023-03-24T12:18:17.311Z,42.12
2023-03-24T12:20:48.754Z,41.74
2023-03-24T12:23:40.806Z,43.64
2023-03-24T12:26:14.823Z,42.00
2023-03-24T12:28:47.344Z,42.27
2023-03-24T12:31:33.038Z,42.39
2023-03-24T12:34:14.416Z,42.16
2023-03-24T12:36:55.604Z,42.89
2023-03-24T12:39:37.593Z,43.15
2023-03-24T12:42:20.284Z,43.37
2023-03-24T12:45:13.850Z,43.18
2023-03-24T12:47:49.492Z,42.88
2023-03-24T12:50:22.603Z,43.73
2023-03-24T12:55:46.827Z,44.07
2023-03-24T12:58:27.169Z,44.93
2023-03-24T13:01:02.001Z,44.41
2023-03-24T13:03:42.883Z,45.65
2023-03-24T13:06:18.444Z,46.21
2023-03-24T13:08:58.695Z,45.57
2023-03-24T13:11:36.530Z,44.82
2023-03-24T13:14:10.579Z,44.60
2023-03-24T13:16:40.697Z,43.59
2023-03-24T13:19:18.638Z,45.07
2023-03-24T13:21:46.728Z,45.77
2023-03-24T13:24:15.263Z,46.58
2023-03-24T13:26:51.685Z,45.66
2023-03-24T13:29:41.840Z,45.53
2023-03-24T13:32:21.736Z,45.83
2023-03-24T13:35:06.668Z,44.93
2023-03-24T13:37:39.277Z,46.28
2023-03-24T13:40:18.597Z,45.78
2023-03-24T13:42:58.725Z,45.94
2023-03-24T13:45:40.987Z,45.32
2023-03-24T13:48:27.678Z,45.68
2023-03-24T13:51:04.083Z,45.34
2023-03-24T13:53:40.590Z,45.74
2023-03-24T13:56:09.850Z,46.50
2023-03-24T13:58:58.591Z,45.70
2023-03-24T14:01:37.061Z,46.92
2023-03-24T14:04:19.140Z,46.93
2023-03-24T14:06:48.819Z,47.89
2023-03-24T14:09:23.474Z,47.52
2023-03-24T14:11:56.487Z,48.18
2023-03-24T14:14:26.120Z,47.76
2023-03-24T14:17:03.588Z,46.92
2023-03-24T14:19:39.523Z,47.49
2023-03-24T14:22:21.333Z,48.24
2023-03-24T14:24:59.802Z,48.13
2023-03-24T14:27:42.942Z,48.62
2023-03-24T14:30:19.864Z,47.66
2023-03-24T14:32:49.459Z,48.20
2023-03-24T14:35:32.346Z,48.75
2023-03-24T14:38:05.328Z,49.53
2023-03-24T14:40:41.935Z,48.69
2023-03-24T14:43:24.996Z,48.82
2023-03-24T14:46:23.028Z,50.26
2023-03-24T14:49:17.228Z,48.55
2023-03-24T14:52:08.827Z,48.11
2023-03-24T14:54:42.288Z,49.41
2023-03-24T14:57:20.516Z,49.40
2023-03-24T15:00:01.260Z,49.11
2023-03-24T15:02:28.486Z,48.51
2023-03-24T15:05:14.378Z,48.81
2023-03-24T15:07:42.413Z,48.50
2023-03-24T15:10:20.250Z,49.95
2023-03-24T15:12:48.729Z,49.98
2023-03-24T15:15:25.933Z,50.54
2023-03-24T15:17:53.076Z,51.60
2023-03-24T15:20:29.920Z,51.83
2023-03-24T15:22:57.118Z,51.20
2023-03-24T15:25:29.225Z,51.95
2023-03-24T15:27:57.953Z,53.46
2023-03-24T15:30:25.725Z,51.82
2023-03-24T15:32:53.135Z,51.44
2023-03-24T15:35:23.019Z,52.00
2023-03-24T15:37:57.276Z,52.11
2023-03-24T15:40:26.983Z,55.33
2023-03-24T15:42:57.442Z,52.82
2023-03-24T15:45:35.548Z,52.62
2023-03-24T15:48:15.043Z,55.22
2023-03-24T15:50:57.291Z,53.51
2023-03-24T15:53:32.256Z,54.20
2023-03-24T15:56:26.313Z,55.25
2023-03-24T15:58:57.338Z,55.98
2023-03-24T16:01:36.453Z,58.05
2023-03-24T16:04:34.498Z,58.55
2023-03-24T16:07:01.465Z,57.10
2023-03-24T16:09:38.215Z,57.70
2023-03-24T16:12:11.010Z,57.56
2023-03-24T16:14:39.048Z,58.11
2023-03-24T16:17:06.220Z,58.88
2023-03-24T16:19:33.280Z,60.01
2023-03-24T16:22:00.201Z,61.37
2023-03-24T16:24:27.092Z,61.44
2023-03-24T16:26:54.099Z,60.88
2023-03-24T16:29:23.306Z,61.88
2023-03-24T16:31:53.119Z,62.68
2023-03-24T16:34:21.748Z,62.43
2023-03-24T16:36:51.133Z,61.92
2023-03-24T16:39:23.763Z,62.35
2023-03-24T16:41:51.281Z,63.12
2023-03-24T16:44:18.420Z,64.05
2023-03-24T16:46:46.977Z,64.63
2023-03-24T16:49:18.814Z,64.61
2023-03-24T16:51:47.348Z,64.66
2023-03-24T16:54:14.411Z,64.73
2023-03-24T16:56:41.586Z,66.79
2023-03-24T16:59:09.388Z,68.44
2023-03-24T17:01:41.833Z,68.57
2023-03-24T17:04:19.581Z,69.06
2023-03-24T17:06:50.979Z,70.78
2023-03-24T17:09:18.030Z,71.48
2023-03-24T17:11:52.361Z,71.85
2023-03-24T17:14:19.578Z,71.69
2023-03-24T17:16:49.407Z,71.77
2023-03-24T17:19:19.253Z,72.57
2023-03-24T17:22:06.882Z,74.63
2023-03-24T17:24:36.858Z,74.68
2023-03-24T17:27:16.944Z,76.93
2023-03-24T17:29:43.868Z,77.61
2023-03-24T17:32:11.398Z,78.98
2023-03-24T17:34:38.434Z,79.96
2023-03-24T17:37:06.244Z,81.24
2023-03-24T17:39:33.234Z,81.13
2023-03-24T17:42:01.642Z,80.47
2023-03-24T17:44:29.066Z,80.65
2023-03-24T17:46:56.091Z,80.41
2023-03-24T17:49:22.967Z,80.20
2023-03-24T17:51:49.908Z,79.43
2023-03-24T17:54:19.377Z,80.21
2023-03-24T17:56:46.874Z,79.73
2023-03-24T17:59:13.951Z,79.64
2023-03-24T18:01:40.911Z,79.41
2023-03-24T18:04:10.149Z,79.80
2023-03-24T18:06:38.762Z,79.58
2023-03-24T18:09:05.808Z,79.69
2023-03-24T18:11:32.936Z,78.91
2023-03-24T18:13:59.882Z,79.08
2023-03-24T18:16:30.318Z,79.28
2023-03-24T18:18:57.923Z,78.60
2023-03-24T18:21:24.937Z,79.27
2023-03-24T18:23:51.939Z,78.69
2023-03-24T18:26:19.173Z,78.46
2023-03-24T18:28:46.383Z,77.79
2023-03-24T18:31:16.662Z,78.66
2023-03-24T18:33:46.255Z,77.68
2023-03-24T18:36:16.803Z,78.17
2023-03-24T18:38:44.567Z,78.61
2023-03-24T18:41:14.157Z,78.15
2023-03-24T18:43:41.542Z,78.12
2023-03-24T18:46:10.422Z,77.25
2023-03-24T18:48:38.182Z,78.11
2023-03-24T18:51:06.306Z,77.28
2023-03-24T18:53:36.552Z,77.38
2023-03-24T18:56:05.679Z,77.01
2023-03-24T18:58:33.916Z,77.32
2023-03-24T19:01:09.560Z,77.95
2023-03-24T19:03:38.592Z,78.33
2023-03-24T19:06:07.427Z,78.24
2023-03-24T19:08:38.071Z,78.61
2023-03-24T19:11:05.639Z,78.24
2023-03-24T19:13:32.990Z,78.72
2023-03-24T19:16:00.494Z,78.35
2023-03-24T19:18:27.682Z,78.48
2023-03-24T19:20:56.544Z,79.01
2023-03-24T19:23:24.836Z,78.82
2023-03-24T19:25:55.243Z,78.82
2023-03-24T19:28:29.349Z,78.98
2023-03-24T19:30:57.641Z,78.85
2023-03-24T19:33:24.559Z,78.94
2023-03-24T19:35:52.044Z,79.59
2023-03-24T19:38:24.099Z,79.98
2023-03-24T19:40:54.482Z,79.28
2023-03-24T19:43:25.944Z,79.08
2023-03-24T19:45:55.195Z,80.70
2023-03-24T19:48:23.426Z,79.77
2023-03-24T19:50:52.901Z,80.21
2023-03-24T19:53:20.792Z,80.32
2023-03-24T19:55:48.371Z,80.33
2023-03-24T19:58:16.045Z,80.17
2023-03-24T20:00:43.049Z,79.90
2023-03-24T20:03:10.227Z,80.00
2023-03-24T20:05:37.606Z,80.26
2023-03-24T20:08:04.817Z,79.87
2023-03-24T20:10:31.781Z,79.62
2023-03-24T20:12:58.676Z,79.99
2023-03-24T20:15:29.411Z,79.60
2023-03-24T20:17:56.926Z,80.78
2023-03-24T20:20:25.198Z,80.13
2023-03-24T20:22:52.436Z,80.54
2023-03-24T20:25:20.151Z,80.63
2023-03-24T20:27:48.026Z,80.27
2023-03-24T20:30:17.205Z,80.65
2023-03-24T20:32:44.409Z,79.44
2023-03-24T20:35:12.651Z,79.44
2023-03-24T20:37:40.289Z,79.53
2023-03-24T20:40:10.245Z,80.05
2023-03-24T20:42:38.705Z,80.55
2023-03-24T20:45:08.499Z,80.55
2023-03-24T20:47:37.208Z,80.13
2023-03-24T20:50:06.519Z,80.13
2023-03-24T20:52:35.153Z,79.77
2023-03-24T20:55:06.467Z,80.64
2023-03-24T20:57:34.013Z,80.87
2023-03-24T21:00:01.645Z,81.15
2023-03-24T21:02:28.863Z,80.11
2023-03-24T21:04:57.379Z,80.83
2023-03-24T21:07:26.066Z,80.26
2023-03-24T21:09:53.366Z,80.19
2023-03-24T21:12:21.656Z,80.15
2023-03-24T21:14:49.359Z,80.00
2023-03-24T21:17:18.752Z,79.69
2023-03-24T21:19:47.080Z,80.26
2023-03-24T21:22:17.197Z,79.73
2023-03-24T21:24:44.087Z,79.33
2023-03-24T21:27:11.017Z,80.45
2023-03-24T21:29:38.292Z,80.18
2023-03-24T21:32:05.420Z,80.27
2023-03-24T21:34:32.535Z,79.73
2023-03-24T21:37:01.790Z,78.95
2023-03-24T21:39:29.117Z,78.86
2023-03-24T21:41:56.093Z,79.93
2023-03-24T21:44:23.543Z,79.99
2023-03-24T21:46:50.505Z,79.54
2023-03-24T21:49:19.195Z,80.27
2023-03-24T21:51:46.948Z,79.11
2023-03-24T21:54:15.252Z,78.90
2023-03-24T21:56:42.435Z,79.17
2023-03-24T21:59:11.448Z,80.14
2023-03-24T22:01:38.622Z,79.72
2023-03-24T22:04:08.848Z,79.45
2023-03-24T22:06:38.241Z,79.93
2023-03-24T22:09:07.350Z,79.77
2023-03-24T22:11:35.803Z,78.96
2023-03-24T22:14:04.049Z,79.87
2023-03-24T22:16:31.394Z,79.59
2023-03-24T22:18:58.839Z,79.64
2023-03-24T22:21:25.901Z,79.81
2023-03-24T22:23:53.591Z,79.02
2023-03-24T22:26:21.317Z,79.68
2023-03-24T22:28:48.928Z,79.07
2023-03-24T22:31:17.860Z,79.51
2023-03-24T22:33:47.750Z,79.73
2023-03-24T22:36:14.798Z,79.38
2023-03-24T22:38:42.727Z,79.30
2023-03-24T22:41:12.746Z,79.87
2023-03-24T22:43:41.190Z,79.71
2023-03-24T22:46:09.224Z,79.75
2023-03-24T22:48:36.536Z,79.25
2023-03-24T22:51:03.943Z,80.14
2023-03-24T22:53:30.839Z,79.81
2023-03-24T22:55:57.776Z,80.10
2023-03-24T22:58:24.701Z,80.12
2023-03-24T23:00:55.589Z,79.72
2023-03-24T23:03:22.838Z,79.99
2023-03-24T23:05:49.896Z,79.91
2023-03-24T23:08:17.076Z,80.43
2023-03-24T23:10:45.551Z,80.03
2023-03-24T23:13:13.534Z,80.63
2023-03-24T23:15:42.800Z,79.56
2023-03-24T23:18:10.922Z,80.25
2023-03-24T23:20:38.010Z,79.56
2023-03-24T23:23:06.821Z,79.86
2023-03-24T23:25:34.945Z,79.94
2023-03-24T23:28:01.922Z,81.37
2023-03-24T23:30:28.894Z,80.26
2023-03-24T23:32:57.775Z,80.54
2023-03-24T23:35:24.980Z,80.35
2023-03-24T23:37:52.181Z,80.79
2023-03-24T23:40:19.479Z,80.72
2023-03-24T23:42:47.810Z,81.84
2023-03-24T23:45:18.298Z,81.58
2023-03-24T23:47:49.643Z,81.72
2023-03-24T23:50:18.307Z,80.97
2023-03-24T23:52:45.325Z,81.35
2023-03-24T23:55:14.503Z,81.51
2023-03-24T23:57:42.651Z,81.16
